Time;durP1;ratioP1;P1;durP2;ratioP2;P2;SDS_P1;SDS_P2;PMS_P1;PMS_P2;Temp;Humidity;BMP_temperature;BMP_pressure;BME280_temperature;BME280_humidity;BME280_pressure;Samples;Min_cycle;Max_cycle;Signal;HPM_P1;HPM_P2
2022/07/04 00:00:53;;;;;;;10.98;2.25;;;16.30;99.90;;;;;;4957587;29;20027;-69
2022/07/04 00:03:21;;;;;;;14.32;2.63;;;16.30;99.90;;;;;;4957485;29;20448;-69
2022/07/04 00:05:48;;;;;;;12.40;2.30;;;16.30;99.90;;;;;;4957347;29;20049;-68
2022/07/04 00:08:15;;;;;;;14.52;2.88;;;16.30;99.90;;;;;;4957585;29;20015;-70
2022/07/04 00:10:43;;;;;;;13.15;2.03;;;16.40;99.90;;;;;;4957777;29;20133;-69
2022/07/04 00:13:10;;;;;;;9.63;1.73;;;16.40;99.90;;;;;;4957599;29;20023;-70
2022/07/04 00:15:37;;;;;;;9.30;1.65;;;16.40;99.90;;;;;;4940185;29;20027;-70
2022/07/04 00:18:05;;;;;;;9.15;1.75;;;16.60;99.90;;;;;;4957311;29;20081;-71
2022/07/04 00:20:32;;;;;;;11.40;1.85;;;16.60;99.90;;;;;;4940121;29;20031;-71
2022/07/04 00:22:59;;;;;;;11.77;1.92;;;16.50;99.90;;;;;;4957127;29;20030;-71
2022/07/04 00:25:27;;;;;;;8.82;1.73;;;16.30;99.90;;;;;;4939922;29;20020;-71
2022/07/04 00:27:54;;;;;;;9.88;1.88;;;16.20;99.90;;;;;;4957228;29;20023;-71
2022/07/04 00:30:21;;;;;;;6.90;1.75;;;16.10;99.90;;;;;;4939809;29;20455;-72
2022/07/04 00:32:49;;;;;;;12.23;2.58;;;16.00;99.90;;;;;;4957121;29;20023;-72
2022/07/04 00:35:16;;;;;;;10.88;1.85;;;16.00;99.90;;;;;;4939112;29;20403;-71
2022/07/04 00:37:43;;;;;;;13.65;2.88;;;16.00;99.90;;;;;;4957238;29;20498;-72
2022/07/04 00:40:11;;;;;;;21.83;3.63;;;16.00;99.90;;;;;;4956920;29;20023;-71
2022/07/04 00:42:39;;;;;;;22.00;3.40;;;16.00;99.90;;;;;;4957047;29;20023;-71
2022/07/04 00:45:06;;;;;;;22.38;3.25;;;16.10;99.90;;;;;;4939592;29;20107;-71
2022/07/04 00:47:34;;;;;;;18.60;2.85;;;16.20;99.90;;;;;;4956995;29;20029;-72
2022/07/04 00:50:01;;;;;;;20.25;3.60;;;16.20;99.90;;;;;;4956897;29;20163;-72
2022/07/04 00:52:29;;;;;;;17.55;2.53;;;16.20;99.90;;;;;;4956883;29;20082;-72
2022/07/04 00:54:57;;;;;;;19.45;3.40;;;16.20;99.90;;;;;;4956689;29;20428;-72
2022/07/04 00:57:24;;;;;;;19.08;3.15;;;16.20;99.90;;;;;;4956704;29;20035;-72
2022/07/04 00:59:51;;;;;;;20.98;3.47;;;16.20;99.90;;;;;;4957079;29;20074;-72
2022/07/04 01:02:18;;;;;;;15.85;2.53;;;16.20;99.90;;;;;;4956838;29;20027;-72
2022/07/04 01:04:46;;;;;;;19.60;3.13;;;16.20;99.90;;;;;;4939073;29;20066;-71
2022/07/04 01:07:13;;;;;;;24.60;3.35;;;16.20;99.90;;;;;;4939327;29;20472;-72
2022/07/04 01:09:41;;;;;;;19.95;2.50;;;16.10;99.90;;;;;;4939321;29;20490;-71
2022/07/04 01:12:08;;;;;;;18.15;3.03;;;16.10;99.90;;;;;;4956768;29;20027;-71
2022/07/04 01:14:39;;;;;;;17.23;2.75;;;16.20;99.90;;;;;;4956503;29;20032;-72
2022/07/04 01:17:07;;;;;;;16.70;2.90;;;16.10;99.90;;;;;;4956494;29;20403;-72
2022/07/04 01:19:34;;;;;;;21.33;3.65;;;16.20;99.90;;;;;;4956364;29;20027;-72
2022/07/04 01:22:06;;;;;;;14.77;2.60;;;16.20;99.90;;;;;;4938857;29;20038;-72
2022/07/04 01:24:34;;;;;;;13.13;2.63;;;16.30;99.90;;;;;;4956616;29;20062;-71
2022/07/04 01:27:01;;;;;;;14.30;3.35;;;16.40;99.90;;;;;;4956751;29;20023;-71
2022/07/04 01:29:28;;;;;;;15.60;2.70;;;16.50;99.90;;;;;;4956265;29;20023;-72
2022/07/04 01:31:56;;;;;;;14.57;2.30;;;16.80;99.90;;;;;;4938827;29;20390;-72
2022/07/04 01:34:23;;;;;;;13.45;2.20;;;16.90;99.90;;;;;;4956630;29;20019;-72
2022/07/04 01:36:50;;;;;;;13.93;3.00;;;17.10;99.90;;;;;;4938833;29;20053;-72
2022/07/04 01:39:18;;;;;;;12.40;2.38;;;17.10;99.90;;;;;;4956104;29;20019;-72
2022/07/04 01:41:45;;;;;;;13.30;2.47;;;17.00;99.90;;;;;;4938580;29;20030;-72
2022/07/04 01:44:12;;;;;;;20.80;3.13;;;17.00;99.90;;;;;;4956021;29;20023;-72
2022/07/04 01:46:39;;;;;;;16.00;3.38;;;17.10;99.90;;;;;;4955108;28;20023;-72
2022/07/04 01:49:08;;;;;;;22.23;3.50;;;17.10;99.90;;;;;;4956208;29;20027;-72
2022/07/04 01:51:35;;;;;;;19.38;3.25;;;17.10;99.90;;;;;;4955848;29;20406;-72
2022/07/04 01:54:03;;;;;;;27.77;5.32;;;17.20;99.90;;;;;;4956076;29;20388;-71
2022/07/04 01:56:30;;;;;;;25.58;4.28;;;17.30;99.90;;;;;;4955634;29;20106;-71
2022/07/04 01:58:59;;;;;;;25.38;4.63;;;17.30;99.90;;;;;;4955730;29;20026;-72
2022/07/04 02:01:32;;;;;;;29.92;4.63;;;17.30;99.90;;;;;;4955627;29;20518;-72
2022/07/04 02:04:01;;;;;;;20.35;4.45;;;17.20;99.90;;;;;;4955913;29;20026;-72
2022/07/04 02:06:29;;;;;;;19.52;3.92;;;17.30;99.90;;;;;;4955368;29;20044;-72
2022/07/04 02:09:15;;;;;;;22.35;4.35;;;17.50;99.90;;;;;;4955754;29;20387;-72
2022/07/04 02:14:33;;;;;;;16.35;3.08;;;17.70;99.90;;;;;;4955843;29;20587;-72
2022/07/04 02:17:01;;;;;;;21.15;3.95;;;17.90;99.90;;;;;;4955401;29;20019;-71
2022/07/04 02:19:29;;;;;;;22.33;3.45;;;18.10;99.90;;;;;;4955468;29;20027;-73
2022/07/04 02:21:57;;;;;;;20.48;3.95;;;18.30;99.90;;;;;;4955422;29;20534;-72
2022/07/04 02:24:24;;;;;;;19.85;3.38;;;18.50;99.90;;;;;;4955144;29;20022;-72
2022/07/04 02:26:51;;;;;;;23.65;3.80;;;18.40;99.90;;;;;;4955242;29;20043;-72
2022/07/04 02:29:19;;;;;;;13.60;3.20;;;18.60;99.90;;;;;;4955311;29;20030;-72
2022/07/04 02:31:46;;;;;;;17.73;3.65;;;18.60;99.90;;;;;;4937968;29;20034;-71
2022/07/04 02:34:13;;;;;;;11.38;2.95;;;18.70;99.90;;;;;;4955256;29;20035;-71
2022/07/04 02:36:41;;;;;;;15.60;3.17;;;18.60;99.90;;;;;;4955442;29;20023;-72
2022/07/04 02:39:08;;;;;;;22.33;3.60;;;18.40;99.90;;;;;;4955072;29;20031;-72
2022/07/04 02:41:36;;;;;;;14.65;3.00;;;18.40;99.90;;;;;;4937822;29;20027;-71
2022/07/04 02:44:04;;;;;;;15.80;2.53;;;18.50;99.90;;;;;;4955024;29;20106;-71
2022/07/04 02:46:34;;;;;;;16.67;2.97;;;18.50;99.90;;;;;;4955046;29;20016;-71
2022/07/04 02:49:02;;;;;;;15.35;2.45;;;18.50;99.90;;;;;;4955036;29;20027;-71
2022/07/04 02:51:29;;;;;;;16.88;2.80;;;18.30;99.90;;;;;;4955015;29;20368;-71
2022/07/04 02:53:57;;;;;;;17.83;3.05;;;18.50;99.90;;;;;;4954855;29;20106;-71
2022/07/04 02:56:25;;;;;;;18.08;4.05;;;18.50;99.90;;;;;;4954939;29;20019;-71
2022/07/04 02:58:52;;;;;;;14.82;2.78;;;18.50;99.90;;;;;;4954516;29;20019;-71
2022/07/04 03:01:20;;;;;;;16.63;3.13;;;18.50;99.90;;;;;;4954893;29;20027;-71
2022/07/04 03:03:48;;;;;;;17.30;4.07;;;18.50;99.90;;;;;;4955251;29;20468;-71
2022/07/04 03:06:15;;;;;;;12.57;2.85;;;18.60;99.90;;;;;;4954540;29;20080;-71
2022/07/04 03:08:43;;;;;;;12.68;2.03;;;18.80;99.90;;;;;;4954792;29;20154;-71
2022/07/04 03:11:11;;;;;;;12.18;2.40;;;19.00;99.90;;;;;;4954642;29;20023;-71
2022/07/04 03:13:40;;;;;;;17.27;2.60;;;18.90;99.90;;;;;;4954668;29;20041;-71
2022/07/04 03:16:07;;;;;;;8.63;2.38;;;18.80;99.90;;;;;;4954756;29;20030;-70
2022/07/04 03:18:35;;;;;;;8.50;1.80;;;18.80;99.90;;;;;;4937310;29;20469;-70
2022/07/04 03:21:04;;;;;;;8.52;1.48;;;18.70;99.90;;;;;;4954724;29;20027;-70
2022/07/04 03:23:35;;;;;;;8.73;1.90;;;18.70;99.90;;;;;;4937146;29;20035;-71
2022/07/04 03:26:03;;;;;;;9.30;1.80;;;18.70;99.90;;;;;;4955024;29;20423;-71
2022/07/04 03:28:30;;;;;;;7.70;1.77;;;18.50;99.90;;;;;;4954622;29;20020;-70
2022/07/04 03:30:58;;;;;;;7.80;1.73;;;18.60;99.90;;;;;;4954866;29;20432;-70
2022/07/04 03:33:27;;;;;;;8.23;1.67;;;18.40;99.90;;;;;;4954523;29;20023;-70
2022/07/04 03:35:57;;;;;;;11.15;1.75;;;18.30;99.90;;;;;;4937265;29;20031;-70
2022/07/04 03:38:24;;;;;;;8.88;1.45;;;18.30;99.90;;;;;;4954314;29;20061;-69
2022/07/04 03:40:51;;;;;;;10.05;1.77;;;18.40;99.90;;;;;;4954469;29;20027;-69
2022/07/04 03:43:19;;;;;;;10.38;2.50;;;18.50;99.90;;;;;;4954297;29;20027;-69
2022/07/04 03:45:46;;;;;;;10.93;1.77;;;18.50;99.90;;;;;;4954356;29;20392;-69
2022/07/04 03:48:13;;;;;;;10.85;1.77;;;18.50;99.90;;;;;;4954396;29;20058;-70
2022/07/04 03:50:40;;;;;;;10.48;1.80;;;18.80;99.90;;;;;;4954351;29;20468;-70
2022/07/04 03:53:08;;;;;;;11.80;2.05;;;19.10;99.90;;;;;;4954392;29;20114;-69
2022/07/04 03:55:35;;;;;;;10.77;2.22;;;19.10;99.90;;;;;;4954205;29;20020;-70
2022/07/04 03:58:04;;;;;;;11.02;2.35;;;19.00;99.90;;;;;;4954294;29;20035;-69
2022/07/04 04:00:32;;;;;;;9.45;2.58;;;18.90;99.90;;;;;;4954243;29;20087;-69
2022/07/04 04:03:00;;;;;;;15.57;2.80;;;18.60;99.90;;;;;;4954482;29;20054;-70
2022/07/04 04:05:28;;;;;;;13.30;2.17;;;18.50;99.90;;;;;;4953913;29;20054;-71
2022/07/04 04:08:01;;;;;;;13.73;2.58;;;17.90;99.90;;;;;;4954228;29;20024;-72
2022/07/04 04:10:31;;;;;;;16.67;3.08;;;17.70;99.90;;;;;;4938585;29;20132;-71
2022/07/04 04:12:59;;;;;;;13.15;1.80;;;17.60;99.90;;;;;;4957732;29;20399;-71
2022/07/04 04:15:27;;;;;;;19.25;2.60;;;17.30;99.90;;;;;;4940298;29;20039;-71
2022/07/04 04:17:54;;;;;;;18.65;3.25;;;17.30;99.90;;;;;;4940318;29;20023;-72
2022/07/04 04:20:21;;;;;;;21.88;2.92;;;17.20;99.90;;;;;;4940222;29;20031;-71
2022/07/04 04:22:50;;;;;;;15.70;2.22;;;17.10;99.90;;;;;;4940100;29;20066;-72
2022/07/04 04:25:18;;;;;;;15.15;2.90;;;17.10;99.90;;;;;;4957371;29;20447;-72
2022/07/04 04:27:45;;;;;;;17.63;3.42;;;17.10;99.90;;;;;;4940105;29;20028;-72
2022/07/04 04:30:13;;;;;;;15.65;2.58;;;17.00;99.90;;;;;;4939899;29;20023;-72
2022/07/04 04:32:40;;;;;;;19.50;4.07;;;17.10;99.90;;;;;;4957382;29;20027;-72
2022/07/04 04:35:08;;;;;;;22.35;3.17;;;17.00;99.90;;;;;;4957329;29;20314;-71
2022/07/04 04:37:35;;;;;;;26.90;3.90;;;17.00;99.90;;;;;;4957221;29;20046;-71
2022/07/04 04:40:03;;;;;;;24.30;3.85;;;17.00;99.90;;;;;;4939870;29;20082;-72
2022/07/04 04:42:30;;;;;;;13.25;2.50;;;17.10;99.90;;;;;;4957350;29;20499;-73
2022/07/04 04:44:58;;;;;;;12.50;2.33;;;17.10;99.90;;;;;;4939673;29;20020;-74
2022/07/04 04:47:25;;;;;;;16.92;3.13;;;17.10;99.90;;;;;;4939727;29;20028;-72
2022/07/04 04:49:52;;;;;;;13.30;3.15;;;17.10;99.90;;;;;;4957076;29;20021;-71
2022/07/04 04:52:20;;;;;;;16.73;2.63;;;17.10;99.90;;;;;;4956937;29;20030;-71
2022/07/04 04:54:47;;;;;;;17.75;3.55;;;17.10;99.90;;;;;;4939634;29;20606;-72
2022/07/04 04:57:14;;;;;;;18.15;2.63;;;17.10;99.90;;;;;;4956764;29;20068;-71
2022/07/04 04:59:41;;;;;;;19.83;3.35;;;17.10;99.90;;;;;;4956875;29;20031;-71
2022/07/04 05:02:09;;;;;;;23.80;3.50;;;17.00;99.90;;;;;;4939323;29;20044;-72
2022/07/04 05:04:36;;;;;;;23.30;3.45;;;17.00;99.90;;;;;;4939186;29;20027;-71
2022/07/04 05:07:04;;;;;;;23.33;3.08;;;16.90;99.90;;;;;;4956703;29;20023;-71
2022/07/04 05:09:31;;;;;;;16.90;2.65;;;16.90;99.90;;;;;;4956658;29;20102;-72
2022/07/04 05:11:58;;;;;;;25.75;3.90;;;17.00;99.90;;;;;;4956491;29;20368;-71
2022/07/04 05:14:26;;;;;;;19.48;3.28;;;17.00;99.90;;;;;;4956602;29;20055;-71
2022/07/04 05:16:53;;;;;;;14.18;2.63;;;17.10;99.90;;;;;;4956524;29;20027;-71
2022/07/04 05:19:21;;;;;;;18.75;2.80;;;17.10;99.90;;;;;;4956547;29;20384;-71
2022/07/04 05:21:48;;;;;;;18.55;3.05;;;17.10;99.90;;;;;;4956396;28;20033;-71
2022/07/04 05:24:16;;;;;;;17.05;3.15;;;17.10;99.90;;;;;;4956331;29;20028;-71
2022/07/04 05:26:44;;;;;;;16.88;2.92;;;16.90;99.90;;;;;;4939017;29;20027;-71
2022/07/04 05:29:11;;;;;;;19.05;3.60;;;16.90;99.90;;;;;;4938958;29;20480;-71
2022/07/04 05:31:39;;;;;;;18.98;2.72;;;16.80;99.90;;;;;;4938886;29;20483;-72
2022/07/04 05:34:06;;;;;;;20.05;3.10;;;16.90;99.90;;;;;;4956145;29;20031;-72
2022/07/04 05:36:33;;;;;;;21.48;2.95;;;16.80;99.90;;;;;;4956009;29;20038;-72
2022/07/04 05:39:01;;;;;;;18.00;3.60;;;16.80;99.90;;;;;;4956364;29;20070;-73
2022/07/04 05:41:28;;;;;;;18.48;3.47;;;16.70;99.90;;;;;;4956318;29;20110;-74
2022/07/04 05:43:55;;;;;;;17.35;3.13;;;16.60;99.90;;;;;;4938634;29;20027;-73
2022/07/04 05:46:22;;;;;;;16.50;3.10;;;16.60;99.90;;;;;;4938661;29;20115;-72
2022/07/04 05:48:50;;;;;;;18.80;2.70;;;16.50;99.90;;;;;;4938486;29;20027;-73
2022/07/04 05:51:17;;;;;;;15.70;2.63;;;16.50;99.90;;;;;;4938571;29;20030;-73
2022/07/04 05:53:44;;;;;;;17.35;2.95;;;16.50;99.90;;;;;;4938476;29;20054;-72
2022/07/04 05:59:34;;;;;;;21.80;3.72;;;16.50;99.90;;;;;;4956069;29;20110;-72
2022/07/04 06:02:01;;;;;;;19.20;3.40;;;16.60;99.90;;;;;;4955843;29;20036;-72
2022/07/04 06:04:29;;;;;;;20.00;2.35;;;16.50;99.90;;;;;;4955534;29;20054;-73
2022/07/04 06:06:56;;;;;;;20.45;3.38;;;16.50;99.90;;;;;;4938363;29;20031;-72
2022/07/04 06:09:23;;;;;;;17.67;3.08;;;16.40;99.90;;;;;;4955575;29;20070;-72
2022/07/04 06:11:50;;;;;;;18.65;2.78;;;16.40;99.90;;;;;;4955596;29;20055;-72
2022/07/04 06:14:18;;;;;;;24.42;3.30;;;16.30;99.90;;;;;;4955451;29;20050;-71
2022/07/04 06:16:45;;;;;;;26.88;4.00;;;16.30;99.90;;;;;;4938026;29;20039;-71
2022/07/04 06:19:12;;;;;;;16.33;3.03;;;16.20;99.90;;;;;;4938044;29;20049;-72
2022/07/04 06:21:40;;;;;;;21.42;3.55;;;16.20;99.90;;;;;;4955244;29;20038;-71
2022/07/04 06:24:07;;;;;;;15.15;3.22;;;16.10;99.90;;;;;;4955274;29;20031;-71
2022/07/04 06:26:34;;;;;;;15.75;2.33;;;16.10;99.90;;;;;;4955228;29;20078;-72
2022/07/04 06:29:02;;;;;;;14.77;1.92;;;16.00;99.90;;;;;;4955180;29;20364;-70
2022/07/04 06:31:29;;;;;;;9.85;1.73;;;15.90;99.90;;;;;;4955221;29;20090;-71
2022/07/04 06:36:42;;;;;;;14.43;2.00;;;15.80;99.90;;;;;;4955071;29;20038;-73
2022/07/04 06:39:09;;;;;;;16.38;2.30;;;15.80;99.90;;;;;;4954970;29;20025;-71
2022/07/04 06:41:37;;;;;;;14.60;2.10;;;15.80;99.90;;;;;;4955046;29;20039;-71
2022/07/04 06:44:04;;;;;;;11.05;1.80;;;15.80;99.90;;;;;;4937567;29;20078;-72
2022/07/04 06:46:32;;;;;;;11.57;1.83;;;15.80;99.90;;;;;;4954999;29;20100;-71
2022/07/04 06:48:59;;;;;;;14.50;2.08;;;15.80;99.90;;;;;;4954875;29;20027;-71
2022/07/04 06:51:26;;;;;;;12.77;2.10;;;15.80;99.90;;;;;;4954866;29;20023;-71
2022/07/04 06:53:54;;;;;;;13.20;1.92;;;15.80;99.90;;;;;;4937468;29;20023;-71
2022/07/04 06:56:21;;;;;;;12.45;2.17;;;15.80;99.90;;;;;;4955144;29;20387;-71
2022/07/04 06:58:48;;;;;;;9.82;1.63;;;15.90;99.90;;;;;;4954724;29;20427;-71
2022/07/04 07:01:16;;;;;;;9.57;1.60;;;15.90;99.90;;;;;;4937365;29;20031;-72
2022/07/04 07:03:44;;;;;;;9.85;2.30;;;15.90;99.90;;;;;;4954649;29;20037;-72
2022/07/04 07:06:11;;;;;;;14.00;2.08;;;16.00;99.90;;;;;;4954513;29;20039;-72
2022/07/04 07:08:39;;;;;;;8.90;1.50;;;16.00;99.90;;;;;;4954659;29;20502;-71
2022/07/04 07:11:18;;;;;;;6.80;1.50;;;15.90;99.90;;;;;;4954655;29;20027;-71
2022/07/04 07:13:48;;;;;;;6.57;1.45;;;15.90;99.90;;;;;;4954904;29;20027;-71
2022/07/04 07:16:15;;;;;;;7.68;2.28;;;15.80;99.90;;;;;;4954515;29;20031;-72
2022/07/04 07:18:43;;;;;;;7.20;1.30;;;15.90;99.90;;;;;;4954601;29;20027;-71
2022/07/04 07:21:11;;;;;;;9.15;1.77;;;15.70;99.90;;;;;;4954539;29;20035;-72
2022/07/04 07:23:42;;;;;;;9.98;1.88;;;15.60;99.90;;;;;;4954567;29;20440;-72
2022/07/04 07:26:10;;;;;;;6.80;1.75;;;15.60;99.90;;;;;;4954610;29;20379;-72
2022/07/04 07:28:38;;;;;;;10.23;1.67;;;15.60;99.90;;;;;;4937281;29;20388;-72
2022/07/04 07:31:05;;;;;;;12.07;1.63;;;15.40;99.90;;;;;;4937216;29;20051;-72
2022/07/04 07:33:33;;;;;;;6.05;1.48;;;15.20;99.90;;;;;;4954870;29;20035;-72
2022/07/04 07:36:00;;;;;;;9.75;2.08;;;15.20;99.90;;;;;;4954686;29;20023;-71
2022/07/04 07:38:27;;;;;;;8.25;1.75;;;15.10;99.90;;;;;;4937167;29;20024;-72
2022/07/04 07:40:55;;;;;;;13.23;2.08;;;15.20;99.90;;;;;;4937282;29;20037;-73
2022/07/04 07:43:23;;;;;;;12.73;2.40;;;15.20;99.90;;;;;;4954950;29;20415;-70
2022/07/04 07:45:50;;;;;;;22.90;3.75;;;15.30;99.90;;;;;;4956914;28;20023;-72
2022/07/04 07:48:17;;;;;;;17.30;2.83;;;15.40;99.90;;;;;;4958179;29;20103;-71
2022/07/04 07:50:45;;;;;;;15.65;3.15;;;15.50;99.90;;;;;;4940916;29;20023;-71
2022/07/04 07:53:12;;;;;;;18.20;2.42;;;15.50;99.90;;;;;;4957998;29;20093;-71
2022/07/04 07:55:39;;;;;;;14.80;2.25;;;15.40;99.90;;;;;;4940754;29;20027;-72
2022/07/04 07:58:06;;;;;;;18.40;3.45;;;15.40;99.90;;;;;;4958522;29;20035;-70
2022/07/04 08:00:34;;;;;;;22.15;3.25;;;15.40;99.90;;;;;;4958015;29;20415;-71
2022/07/04 08:05:46;;;;;;;14.82;2.38;;;15.40;99.90;;;;;;4957733;29;20051;-71
2022/07/04 08:08:14;;;;;;;21.17;3.20;;;15.30;99.90;;;;;;4958113;29;20027;-72
2022/07/04 08:10:41;;;;;;;19.02;3.90;;;15.40;99.90;;;;;;4957855;29;20023;-71
2022/07/04 08:13:08;;;;;;;22.25;3.65;;;15.40;99.90;;;;;;4957745;29;20373;-71
2022/07/04 08:15:36;;;;;;;20.20;3.50;;;15.50;99.90;;;;;;4940268;29;20499;-71
2022/07/04 08:18:03;;;;;;;18.38;3.05;;;15.50;99.90;;;;;;4940313;29;20027;-71
2022/07/04 08:20:30;;;;;;;17.08;2.28;;;15.40;99.90;;;;;;4957734;29;20486;-71
2022/07/04 08:22:58;;;;;;;14.88;2.88;;;15.30;99.90;;;;;;4940067;29;20027;-72
2022/07/04 08:25:25;;;;;;;19.70;3.30;;;15.30;99.90;;;;;;4940086;29;20039;-72
2022/07/04 08:27:52;;;;;;;18.40;2.80;;;15.30;99.90;;;;;;4940034;29;20023;-70
2022/07/04 08:30:20;;;;;;;17.67;2.45;;;15.20;99.90;;;;;;4957665;29;20023;-72
2022/07/04 08:32:47;;;;;;;14.63;2.53;;;15.20;99.90;;;;;;4957412;29;20026;-72
2022/07/04 08:35:14;;;;;;;20.42;3.60;;;15.20;99.90;;;;;;4957219;29;20453;-71
2022/07/04 08:37:42;;;;;;;20.33;3.00;;;15.30;99.90;;;;;;4957080;29;20034;-71
2022/07/04 08:40:10;;;;;;;21.00;3.85;;;15.30;99.90;;;;;;4939546;29;20023;-72
2022/07/04 08:42:39;;;;;;;22.15;3.78;;;15.40;99.90;;;;;;4939776;29;20091;-72
2022/07/04 08:45:08;;;;;;;20.65;3.63;;;15.40;99.90;;;;;;4956943;29;20078;-71
2022/07/04 08:47:38;;;;;;;25.95;4.10;;;15.30;99.90;;;;;;4939592;29;20078;-71
2022/07/04 08:50:13;;;;;;;25.48;4.18;;;15.30;99.90;;;;;;4956999;29;20480;-72
2022/07/04 08:52:43;;;;;;;23.92;3.58;;;15.30;99.90;;;;;;4957018;29;20082;-72
2022/07/04 09:00:44;;;;;;;26.33;4.45;;;15.20;99.90;;;;;;4957023;29;20106;-72
2022/07/04 09:03:12;;;;;;;24.20;4.00;;;15.30;99.90;;;;;;4956649;29;20035;-73
2022/07/04 09:05:39;;;;;;;29.23;4.80;;;15.30;99.90;;;;;;4939121;29;20495;-72
2022/07/04 09:08:07;;;;;;;18.23;3.55;;;15.40;99.90;;;;;;4956641;29;20107;-72
2022/07/04 09:10:35;;;;;;;23.08;3.30;;;15.30;99.90;;;;;;4939358;29;20357;-71
2022/07/04 09:13:04;;;;;;;21.05;4.50;;;15.30;99.90;;;;;;4956467;29;20130;-71
2022/07/04 09:15:32;;;;;;;19.00;3.35;;;15.30;99.90;;;;;;4956502;29;20034;-71
2022/07/04 09:18:00;;;;;;;27.73;4.00;;;15.40;99.90;;;;;;4956442;29;20027;-71
2022/07/04 09:20:30;;;;;;;28.33;4.90;;;15.40;99.90;;;;;;4956516;29;20062;-70
2022/07/04 09:22:58;;;;;;;29.48;3.85;;;15.30;99.90;;;;;;4956325;29;20070;-72
2022/07/04 09:25:26;;;;;;;29.45;4.28;;;15.40;99.90;;;;;;4957002;29;20031;-71
2022/07/04 09:27:58;;;;;;;32.92;4.72;;;15.40;99.90;;;;;;4956466;29;20020;-71
2022/07/04 09:30:29;;;;;;;24.27;4.15;;;15.40;99.90;;;;;;4956295;29;20484;-71
2022/07/04 09:33:02;;;;;;;28.88;4.35;;;15.40;99.90;;;;;;4956303;29;20486;-72
2022/07/04 09:35:33;;;;;;;25.95;4.50;;;15.40;99.90;;;;;;4956198;29;20027;-73
2022/07/04 09:38:04;;;;;;;22.25;3.92;;;15.40;99.90;;;;;;4956699;29;20023;-72
2022/07/04 09:43:25;;;;;;;29.02;4.10;;;15.40;99.90;;;;;;4956463;29;20030;-72
2022/07/04 09:45:57;;;;;;;28.25;4.90;;;15.40;99.90;;;;;;4956144;29;20055;-72
2022/07/04 09:48:25;;;;;;;21.65;4.47;;;15.30;99.90;;;;;;4956050;29;20360;-71
2022/07/04 09:50:53;;;;;;;24.08;3.83;;;15.40;99.90;;;;;;4956265;29;20530;-71
2022/07/04 09:53:25;;;;;;;17.92;3.28;;;15.40;99.90;;;;;;4955862;29;20034;-71
2022/07/04 09:55:53;;;;;;;21.05;4.00;;;15.40;99.90;;;;;;4955941;29;20494;-71
2022/07/04 09:58:20;;;;;;;24.20;4.22;;;15.30;99.90;;;;;;4955728;29;20031;-72
2022/07/04 10:00:49;;;;;;;20.80;3.08;;;15.30;99.90;;;;;;4955991;29;20028;-72
2022/07/04 10:03:27;;;;;;;19.65;3.65;;;15.30;99.90;;;;;;4938322;29;20038;-72
2022/07/04 10:06:06;;;;;;;25.33;3.35;;;15.30;99.90;;;;;;4938206;29;20138;-72
2022/07/04 10:08:35;;;;;;;21.35;3.10;;;15.20;99.90;;;;;;4954957;28;20027;-71
2022/07/04 10:11:04;;;;;;;13.60;3.13;;;15.10;99.90;;;;;;4955651;29;20028;-71
2022/07/04 10:13:32;;;;;;;15.07;2.10;;;15.10;99.90;;;;;;4955716;29;20031;-71
2022/07/04 10:16:00;;;;;;;20.58;2.75;;;15.00;99.90;;;;;;4955579;29;20067;-72
2022/07/04 10:18:28;;;;;;;14.70;3.33;;;15.00;99.90;;;;;;4955396;29;20027;-72
2022/07/04 10:20:57;;;;;;;21.50;3.63;;;15.10;99.90;;;;;;4955499;29;20397;-71
2022/07/04 10:23:31;;;;;;;16.65;3.67;;;15.10;99.90;;;;;;4937966;29;20024;-71
2022/07/04 10:25:59;;;;;;;18.05;2.67;;;15.10;99.90;;;;;;4955235;29;20384;-71
2022/07/04 10:28:26;;;;;;;17.55;3.15;;;15.10;99.90;;;;;;4955321;29;20030;-71
2022/07/04 10:30:56;;;;;;;18.33;3.35;;;15.10;99.90;;;;;;4955266;29;20360;-71
2022/07/04 10:33:29;;;;;;;16.02;3.50;;;15.10;99.90;;;;;;4955235;29;20030;-71
2022/07/04 10:36:01;;;;;;;18.95;2.92;;;15.10;99.90;;;;;;4955048;29;20039;-71
2022/07/04 10:38:30;;;;;;;19.40;3.97;;;15.10;99.90;;;;;;4955180;29;20054;-72
2022/07/04 10:41:02;;;;;;;21.05;3.10;;;15.10;99.90;;;;;;4937696;29;20121;-71
2022/07/04 10:43:38;;;;;;;21.02;3.17;;;15.10;99.90;;;;;;4954955;29;20024;-70
2022/07/04 10:46:20;;;;;;;24.52;4.22;;;15.00;99.90;;;;;;4955607;29;20023;-72
2022/07/04 10:49:06;;;;;;;16.83;3.42;;;15.10;99.90;;;;;;4955022;29;20098;-70
2022/07/04 10:51:54;;;;;;;25.33;4.22;;;15.10;99.90;;;;;;4955027;29;20019;-72
2022/07/04 10:54:32;;;;;;;22.20;4.53;;;15.10;99.90;;;;;;4937623;29;20491;-72
2022/07/04 10:57:19;;;;;;;28.95;4.68;;;15.10;99.90;;;;;;4954887;29;20031;-72
2022/07/04 10:59:57;;;;;;;16.35;2.95;;;15.20;99.90;;;;;;4937525;29;20038;-72
2022/07/04 11:02:32;;;;;;;23.73;3.50;;;15.10;99.90;;;;;;4937360;29;20046;-72
2022/07/04 11:05:12;;;;;;;17.10;2.55;;;15.10;99.90;;;;;;4954822;29;20066;-72
2022/07/04 11:07:40;;;;;;;19.95;3.60;;;15.00;99.90;;;;;;4955138;29;20028;-73
2022/07/04 11:10:16;;;;;;;21.48;3.05;;;15.00;99.90;;;;;;4937335;29;20031;-72
2022/07/04 11:12:55;;;;;;;19.25;2.70;;;15.00;99.90;;;;;;4954960;29;20019;-73
2022/07/04 11:15:28;;;;;;;19.67;2.85;;;15.00;99.90;;;;;;4954745;29;20033;-72
2022/07/04 11:18:00;;;;;;;17.67;2.72;;;15.10;99.90;;;;;;4954908;29;20037;-72
2022/07/04 11:20:31;;;;;;;14.25;2.55;;;15.00;99.90;;;;;;4958341;28;20102;-72
2022/07/04 11:23:24;;;;;;;16.67;2.80;;;15.00;99.90;;;;;;4958908;29;20031;-72
2022/07/04 11:25:54;;;;;;;22.42;3.05;;;15.00;99.90;;;;;;4955796;29;20083;-71
2022/07/04 11:28:36;;;;;;;17.80;3.33;;;15.00;99.90;;;;;;4958294;29;20107;-72
2022/07/04 11:31:03;;;;;;;18.70;3.72;;;15.00;99.90;;;;;;4958632;29;20038;-72
2022/07/04 11:33:39;;;;;;;18.40;3.47;;;15.00;99.90;;;;;;4958425;29;20496;-72
2022/07/04 11:36:19;;;;;;;19.90;2.85;;;15.00;99.90;;;;;;4958697;29;20038;-73
2022/07/04 11:38:55;;;;;;;23.42;3.67;;;15.00;99.90;;;;;;4958546;29;20043;-73
2022/07/04 11:47:16;;;;;;;33.60;4.82;;;14.90;99.90;;;;;;4958581;29;20038;-71
2022/07/04 11:49:55;;;;;;;23.20;4.10;;;15.00;99.90;;;;;;4958212;29;20023;-72
2022/07/04 11:52:57;;;;;;;23.38;4.10;;;14.90;99.90;;;;;;4940815;29;20034;-72
2022/07/04 11:55:24;;;;;;;32.35;5.95;;;15.00;99.90;;;;;;4957924;29;20031;-71
2022/07/04 11:57:54;;;;;;;31.10;5.03;;;15.00;99.90;;;;;;4958209;29;20057;-71
2022/07/04 12:00:27;;;;;;;32.00;5.20;;;15.10;99.90;;;;;;4940807;29;20123;-72
2022/07/04 12:03:00;;;;;;;29.83;4.75;;;15.10;99.90;;;;;;4940788;29;20039;-72
2022/07/04 12:05:27;;;;;;;31.13;5.10;;;15.10;99.90;;;;;;4957549;29;20054;-72
2022/07/04 12:07:55;;;;;;;28.48;4.32;;;15.00;99.90;;;;;;4940473;29;20031;-72
2022/07/04 12:10:25;;;;;;;28.75;4.38;;;15.00;99.90;;;;;;4958272;29;20023;-72
2022/07/04 12:12:55;;;;;;;;;;;15.00;99.90;;;;;;4958240;29;20078;-71
2022/07/04 12:15:24;;;;;;;16.15;2.85;;;14.90;99.90;;;;;;4957767;29;20394;-71
2022/07/04 12:17:55;;;;;;;27.02;4.07;;;14.80;99.90;;;;;;4957817;29;20498;-70
2022/07/04 12:20:24;;;;;;;25.15;4.25;;;14.80;99.90;;;;;;4957612;29;20023;-70
2022/07/04 12:22:56;;;;;;;23.13;4.53;;;14.80;99.90;;;;;;4957446;29;20500;-70
2022/07/04 12:25:45;;;;;;;25.90;4.40;;;14.90;99.90;;;;;;4957546;29;20024;-71
2022/07/04 12:28:15;;;;;;;25.00;3.58;;;15.00;99.90;;;;;;4957735;29;20033;-72
2022/07/04 12:30:55;;;;;;;25.60;3.42;;;14.90;99.90;;;;;;4939423;29;20121;-71
2022/07/04 12:33:24;;;;;;;19.35;4.07;;;15.00;99.90;;;;;;4940106;29;20050;-72
2022/07/04 12:35:56;;;;;;;19.85;2.95;;;15.00;99.90;;;;;;4940044;29;20023;-72
2022/07/04 12:38:34;;;;;;;24.40;4.85;;;15.00;99.90;;;;;;4957277;29;20035;-72
2022/07/04 12:41:08;;;;;;;29.90;4.85;;;15.00;99.90;;;;;;4957286;29;20068;-71
2022/07/04 12:43:44;;;;;;;28.27;3.85;;;15.00;99.90;;;;;;4957556;29;20038;-70
2022/07/04 12:46:25;;;;;;;25.23;4.78;;;15.10;99.90;;;;;;4957235;29;20024;-71
2022/07/04 12:48:54;;;;;;;32.95;4.85;;;15.10;99.90;;;;;;4939811;29;20034;-72
2022/07/04 12:51:24;;;;;;;27.30;4.47;;;15.00;99.90;;;;;;4957076;29;20107;-72
2022/07/04 12:53:53;;;;;;;32.53;5.23;;;15.00;99.90;;;;;;4956965;29;20035;-70
2022/07/04 12:56:42;;;;;;;30.13;4.43;;;15.00;99.90;;;;;;4957485;29;20028;-71
2022/07/04 12:59:17;;;;;;;30.45;4.00;;;15.00;99.90;;;;;;4956980;29;20035;-71
2022/07/04 13:01:46;;;;;;;25.20;3.95;;;15.00;99.90;;;;;;4956952;29;20110;-72
2022/07/04 13:04:16;;;;;;;23.55;3.65;;;15.10;99.90;;;;;;4956736;29;20527;-71
2022/07/04 13:06:43;;;;;;;24.23;3.65;;;15.10;99.90;;;;;;4956646;29;20511;-72
2022/07/04 13:09:10;;;;;;;19.95;2.97;;;15.10;99.90;;;;;;4957303;29;20133;-73
2022/07/04 13:14:24;;;;;;;23.63;3.50;;;15.00;99.90;;;;;;4956833;29;20034;-73
2022/07/04 13:16:51;;;;;;;26.40;3.60;;;15.00;99.90;;;;;;4956704;29;20114;-71